createdAt,value
2023-02-04T00:02:02.006Z,68.63
2023-02-04T00:04:28.347Z,67.85
2023-02-04T00:06:54.678Z,67.26
2023-02-04T00:09:21.005Z,68.26
2023-02-04T00:11:47.371Z,67.23
2023-02-04T00:14:13.768Z,67.32
2023-02-04T00:16:40.170Z,68.41
2023-02-04T00:19:06.550Z,67.60
2023-02-04T00:21:32.936Z,65.94
2023-02-04T00:23:59.270Z,66.67
2023-02-04T00:26:25.640Z,67.31
2023-02-04T00:28:52.022Z,66.96
2023-02-04T00:31:18.434Z,67.95
2023-02-04T00:33:44.847Z,67.78
2023-02-04T00:36:11.172Z,67.76
2023-02-04T00:38:37.540Z,67.44
2023-02-04T00:41:03.924Z,66.94
2023-02-04T00:43:30.298Z,67.14
2023-02-04T00:45:56.671Z,66.72
2023-02-04T00:48:23.441Z,67.23
2023-02-04T00:50:50.893Z,67.39
2023-02-04T00:53:17.234Z,67.21
2023-02-04T00:55:43.566Z,67.57
2023-02-04T00:58:10.289Z,67.28
2023-02-04T01:00:36.737Z,68.06
2023-02-04T01:03:03.313Z,67.20
2023-02-04T01:05:29.680Z,67.69
2023-02-04T01:07:56.009Z,67.23
2023-02-04T01:10:22.389Z,67.51
2023-02-04T01:12:48.876Z,67.97
2023-02-04T01:15:15.364Z,68.20
2023-02-04T01:17:41.814Z,67.61
2023-02-04T01:20:09.756Z,67.42
2023-02-04T01:22:36.117Z,67.35
2023-02-04T01:25:02.636Z,67.01
2023-02-04T01:27:28.997Z,67.35
2023-02-04T01:29:55.380Z,67.42
2023-02-04T01:32:21.737Z,67.19
2023-02-04T01:34:48.155Z,67.72
2023-02-04T01:37:14.700Z,67.04
2023-02-04T01:39:41.043Z,68.07
2023-02-04T01:42:07.673Z,68.10
2023-02-04T01:44:34.115Z,68.33
2023-02-04T01:47:00.495Z,68.53
2023-02-04T01:49:27.023Z,67.76
2023-02-04T01:51:53.552Z,67.79
2023-02-04T01:54:21.586Z,67.14
2023-02-04T01:56:49.029Z,67.03
2023-02-04T01:59:17.004Z,67.35
2023-02-04T02:01:43.260Z,66.43
2023-02-04T02:04:12.461Z,67.19
2023-02-04T02:06:42.796Z,67.30
2023-02-04T02:09:09.162Z,66.88
2023-02-04T02:11:35.727Z,66.56
2023-02-04T02:14:02.185Z,66.62
2023-02-04T02:16:28.575Z,67.12
2023-02-04T02:18:55.006Z,67.29
2023-02-04T02:21:31.672Z,67.28
2023-02-04T02:23:58.113Z,66.68
2023-02-04T02:26:24.777Z,66.62
2023-02-04T02:28:51.500Z,66.68
2023-02-04T02:31:19.596Z,67.62
2023-02-04T02:33:46.346Z,67.11
2023-02-04T02:36:12.726Z,66.58
2023-02-04T02:38:39.697Z,65.89
2023-02-04T02:41:08.839Z,66.37
2023-02-04T02:43:35.655Z,66.80
2023-02-04T02:46:02.704Z,66.01
2023-02-04T02:48:29.112Z,66.77
2023-02-04T02:50:55.653Z,67.06
2023-02-04T02:53:22.092Z,67.45
2023-02-04T02:55:48.838Z,66.94
2023-02-04T02:58:36.354Z,67.98
2023-02-04T03:01:05.353Z,66.89
2023-02-04T03:03:34.848Z,66.86
2023-02-04T03:06:13.800Z,67.59
2023-02-04T03:08:40.412Z,68.10
2023-02-04T03:11:06.928Z,69.11
2023-02-04T03:13:34.065Z,68.64
2023-02-04T03:16:00.949Z,69.00
2023-02-04T03:18:27.979Z,68.16
2023-02-04T03:20:54.360Z,67.98
2023-02-04T03:23:20.957Z,68.11
2023-02-04T03:25:47.428Z,68.52
2023-02-04T03:28:13.975Z,68.97
2023-02-04T03:30:40.438Z,69.77
2023-02-04T03:33:06.870Z,69.23
2023-02-04T03:35:33.262Z,68.06
2023-02-04T03:37:59.856Z,68.67
2023-02-04T03:40:26.274Z,68.59
2023-02-04T03:42:52.704Z,69.45
2023-02-04T03:45:19.970Z,69.02
2023-02-04T03:47:46.367Z,69.49
2023-02-04T03:50:14.199Z,68.64
2023-02-04T03:52:40.661Z,69.25
2023-02-04T03:55:07.220Z,68.80
2023-02-04T03:57:33.639Z,68.93
2023-02-04T03:59:59.963Z,70.14
2023-02-04T04:02:26.396Z,69.78
2023-02-04T04:04:52.822Z,70.29
2023-02-04T04:07:19.205Z,71.09
2023-02-04T04:09:45.603Z,70.91
2023-02-04T04:12:11.940Z,71.66
2023-02-04T04:14:38.272Z,71.26
2023-02-04T04:17:04.660Z,71.17
2023-02-04T04:19:32.551Z,70.60
2023-02-04T04:21:58.917Z,70.97
2023-02-04T04:24:25.339Z,69.79
2023-02-04T04:26:51.717Z,70.41
2023-02-04T04:29:18.136Z,70.69
2023-02-04T04:31:45.596Z,71.23
2023-02-04T04:34:12.036Z,70.42
2023-02-04T04:36:38.585Z,71.40
2023-02-04T04:39:04.988Z,69.93
2023-02-04T04:41:31.349Z,70.04
2023-02-04T04:43:57.753Z,70.70
2023-02-04T04:46:24.138Z,70.85
2023-02-04T04:48:50.505Z,70.56
2023-02-04T04:51:16.848Z,70.06
2023-02-04T04:53:43.200Z,70.43
2023-02-04T04:56:09.566Z,70.68
2023-02-04T04:58:35.915Z,71.05
2023-02-04T05:01:02.424Z,71.83
2023-02-04T05:03:28.838Z,72.66
2023-02-04T05:05:55.218Z,72.60
2023-02-04T05:08:21.590Z,73.03
2023-02-04T05:10:47.953Z,72.65
2023-02-04T05:13:14.340Z,72.29
2023-02-04T05:15:40.758Z,72.97
2023-02-04T05:18:07.131Z,73.24
2023-02-04T05:20:33.767Z,72.82
2023-02-04T05:23:05.491Z,72.59
2023-02-04T05:25:32.024Z,73.06
2023-02-04T05:27:58.452Z,72.08
2023-02-04T05:30:24.950Z,72.21
2023-02-04T05:32:51.372Z,72.43
2023-02-04T05:35:17.859Z,73.14
2023-02-04T05:37:44.201Z,73.28
2023-02-04T05:40:11.048Z,73.13
2023-02-04T05:42:37.371Z,73.16
2023-02-04T05:45:03.916Z,72.27
2023-02-04T05:47:30.330Z,73.11
2023-02-04T05:49:56.764Z,73.27
2023-02-04T05:52:23.162Z,72.54
2023-02-04T05:54:49.544Z,72.62
2023-02-04T05:57:15.897Z,72.43
2023-02-04T05:59:42.306Z,72.95
2023-02-04T06:02:08.686Z,72.73
2023-02-04T06:04:35.075Z,72.65
2023-02-04T06:07:01.793Z,72.93
2023-02-04T06:09:28.201Z,72.39
2023-02-04T06:11:54.587Z,72.93
2023-02-04T06:14:20.955Z,71.93
2023-02-04T06:16:47.539Z,72.24
2023-02-04T06:19:14.278Z,71.83
2023-02-04T06:21:40.635Z,71.95
2023-02-04T06:24:06.992Z,72.14
2023-02-04T06:26:33.359Z,71.85
2023-02-04T06:28:59.764Z,72.70
2023-02-04T06:31:26.147Z,72.68
2023-02-04T06:33:52.539Z,72.93
2023-02-04T06:36:18.928Z,72.55
2023-02-04T06:38:45.292Z,72.82
2023-02-04T06:41:11.690Z,73.03
2023-02-04T06:43:38.062Z,72.93
2023-02-04T06:46:04.917Z,73.50
2023-02-04T06:48:31.441Z,72.95
2023-02-04T06:50:57.816Z,72.76
2023-02-04T06:53:24.151Z,73.31
2023-02-04T06:55:50.526Z,72.12
2023-02-04T06:58:16.911Z,72.11
2023-02-04T07:00:43.291Z,72.30
2023-02-04T07:03:09.793Z,71.96
2023-02-04T07:05:36.135Z,72.40
2023-02-04T07:08:02.677Z,72.45
2023-02-04T07:10:29.324Z,72.74
2023-02-04T07:12:55.834Z,71.69
2023-02-04T07:15:22.240Z,72.11
2023-02-04T07:17:48.599Z,72.69
2023-02-04T07:20:15.008Z,73.35
2023-02-04T07:22:42.178Z,72.52
2023-02-04T07:25:10.011Z,73.11
2023-02-04T07:27:36.420Z,72.69
2023-02-04T07:30:03.030Z,73.19
2023-02-04T07:32:32.763Z,72.68
2023-02-04T07:35:02.308Z,72.71
2023-02-04T07:37:29.285Z,72.88
2023-02-04T07:39:55.654Z,72.18
2023-02-04T07:42:22.069Z,72.67
2023-02-04T07:44:48.403Z,72.82
2023-02-04T07:47:14.805Z,71.78
2023-02-04T07:49:41.160Z,72.54
2023-02-04T07:52:07.732Z,73.26
2023-02-04T07:54:34.120Z,74.03
2023-02-04T07:57:00.552Z,73.12
2023-02-04T07:59:26.953Z,73.93
2023-02-04T08:01:53.456Z,73.19
2023-02-04T08:04:19.901Z,73.83
2023-02-04T08:06:46.261Z,73.57
2023-02-04T08:09:12.591Z,73.62
2023-02-04T08:11:38.908Z,73.04
2023-02-04T08:14:05.332Z,73.58
2023-02-04T08:16:31.720Z,73.04
2023-02-04T08:18:58.133Z,72.07
2023-02-04T08:21:24.488Z,73.11
2023-02-04T08:23:50.921Z,72.62
2023-02-04T08:26:17.260Z,73.38
2023-02-04T08:28:43.957Z,72.49
2023-02-04T08:31:13.229Z,72.92
2023-02-04T08:33:39.938Z,71.96
2023-02-04T08:36:07.258Z,72.83
2023-02-04T08:38:33.642Z,71.82
2023-02-04T08:41:00.190Z,71.71
2023-02-04T08:43:27.033Z,71.41
2023-02-04T08:45:53.456Z,71.34
2023-02-04T08:48:19.853Z,72.36
2023-02-04T08:50:46.167Z,71.58
2023-02-04T08:53:12.511Z,72.03
2023-02-04T08:55:38.854Z,71.24
2023-02-04T08:58:05.188Z,71.85
2023-02-04T09:00:31.926Z,71.78
2023-02-04T09:02:58.513Z,71.78
2023-02-04T09:05:25.012Z,71.36
2023-02-04T09:07:51.391Z,71.71
2023-02-04T09:10:17.881Z,70.90
2023-02-04T09:12:44.398Z,70.60
2023-02-04T09:15:11.508Z,70.23
2023-02-04T09:17:38.881Z,69.82
2023-02-04T09:20:08.542Z,67.49
2023-02-04T09:22:36.628Z,67.69
2023-02-04T09:25:03.183Z,66.47
2023-02-04T09:27:29.610Z,67.25
2023-02-04T09:29:55.944Z,68.04
2023-02-04T09:32:22.370Z,67.33
2023-02-04T09:34:48.742Z,67.58
2023-02-04T09:37:15.073Z,68.11
2023-02-04T09:39:41.412Z,66.76
2023-02-04T09:42:10.717Z,67.15
2023-02-04T09:44:37.832Z,66.48
2023-02-04T09:47:04.216Z,67.11
2023-02-04T09:49:30.655Z,67.17
2023-02-04T09:51:57.097Z,67.75
2023-02-04T09:54:24.084Z,67.19
2023-02-04T09:56:50.797Z,68.01
2023-02-04T09:59:20.057Z,68.51
2023-02-04T10:01:52.591Z,69.09
2023-02-04T10:04:19.608Z,69.12
2023-02-04T10:06:46.100Z,69.97
2023-02-04T10:09:12.613Z,69.81
2023-02-04T10:11:40.309Z,68.92
2023-02-04T10:14:08.722Z,69.02
2023-02-04T10:16:36.004Z,69.03
2023-02-04T10:19:04.201Z,69.11
2023-02-04T10:21:36.633Z,69.34
2023-02-04T10:24:05.289Z,69.07
2023-02-04T10:26:32.612Z,69.12
2023-02-04T10:29:03.205Z,69.53
2023-02-04T10:31:38.341Z,69.36
2023-02-04T10:34:07.755Z,69.38
2023-02-04T10:36:34.114Z,68.43
2023-02-04T10:39:05.230Z,67.75
2023-02-04T10:41:31.575Z,68.45
2023-02-04T10:44:10.776Z,68.42
2023-02-04T10:46:37.183Z,67.83
2023-02-04T10:49:21.899Z,68.80
2023-02-04T10:51:49.443Z,69.16
2023-02-04T10:54:31.197Z,70.28
2023-02-04T10:57:11.664Z,70.53
2023-02-04T10:59:38.107Z,70.86
2023-02-04T11:02:22.982Z,71.47
2023-02-04T11:04:49.362Z,70.72
2023-02-04T11:07:15.712Z,71.95
2023-02-04T11:09:43.420Z,70.89
2023-02-04T11:12:21.487Z,70.20
2023-02-04T11:14:58.025Z,70.22
2023-02-04T11:17:32.629Z,69.34
2023-02-04T11:20:02.465Z,69.72
2023-02-04T11:22:46.864Z,69.47
2023-02-04T11:25:36.346Z,69.05
2023-02-04T11:28:34.128Z,68.69
2023-02-04T11:31:03.872Z,67.68
2023-02-04T11:33:42.001Z,67.27
2023-02-04T11:36:11.228Z,67.68
2023-02-04T11:38:38.650Z,66.86
2023-02-04T11:41:05.660Z,68.36
2023-02-04T11:43:35.265Z,68.52
2023-02-04T11:46:04.432Z,67.71
2023-02-04T11:48:31.870Z,66.29
2023-02-04T11:51:00.405Z,65.17
2023-02-04T11:53:31.858Z,64.19
2023-02-04T11:55:58.379Z,65.02
2023-02-04T11:58:26.103Z,64.00
2023-02-04T12:00:53.146Z,62.91
2023-02-04T12:03:23.780Z,62.61
2023-02-04T12:05:50.368Z,61.91
2023-02-04T12:08:22.354Z,62.93
2023-02-04T12:11:14.485Z,62.92
2023-02-04T12:13:53.085Z,61.72
2023-02-04T12:16:19.528Z,60.94
2023-02-04T12:18:46.010Z,61.88
2023-02-04T12:21:14.328Z,60.51
2023-02-04T12:23:42.365Z,62.83
2023-02-04T12:26:09.301Z,62.48
2023-02-04T12:28:35.763Z,62.51
2023-02-04T12:31:02.585Z,61.99
2023-02-04T12:33:29.132Z,61.96
2023-02-04T12:35:55.542Z,61.63
2023-02-04T12:38:21.911Z,61.48
2023-02-04T12:40:48.262Z,61.76
2023-02-04T12:43:14.619Z,61.21
2023-02-04T12:45:45.626Z,61.26
2023-02-04T12:48:12.663Z,61.64
2023-02-04T12:50:39.068Z,62.13
2023-02-04T12:53:06.389Z,60.78
2023-02-04T12:55:33.282Z,60.74
2023-02-04T12:57:59.858Z,60.70
2023-02-04T13:00:27.359Z,59.91
2023-02-04T13:02:54.983Z,59.57
2023-02-04T13:05:21.524Z,60.28
2023-02-04T13:07:47.864Z,60.42
2023-02-04T13:10:14.395Z,61.07
2023-02-04T13:12:40.863Z,59.50
2023-02-04T13:15:08.047Z,59.21
2023-02-04T13:17:34.492Z,60.21
2023-02-04T13:20:01.075Z,60.39
2023-02-04T13:22:27.616Z,60.42
2023-02-04T13:24:53.956Z,60.90
2023-02-04T13:27:20.335Z,60.54
2023-02-04T13:29:46.781Z,60.91
2023-02-04T13:32:13.137Z,59.51
2023-02-04T13:34:39.512Z,59.91
2023-02-04T13:37:05.995Z,59.26
2023-02-04T13:39:32.330Z,59.87
2023-02-04T13:41:58.900Z,59.66
2023-02-04T13:44:25.327Z,59.65
2023-02-04T13:46:51.985Z,59.20
2023-02-04T13:49:18.432Z,59.01
2023-02-04T13:51:44.765Z,58.38
2023-02-04T13:54:11.158Z,57.94
2023-02-04T13:56:37.603Z,58.92
2023-02-04T13:59:03.982Z,59.10
2023-02-04T14:01:30.347Z,58.60
2023-02-04T14:03:56.785Z,58.61
2023-02-04T14:06:23.994Z,58.79
2023-02-04T14:08:50.356Z,58.05
2023-02-04T14:11:17.177Z,59.46
2023-02-04T14:13:43.517Z,57.97
2023-02-04T14:16:09.996Z,57.98
2023-02-04T14:18:36.751Z,59.07
2023-02-04T14:21:03.358Z,58.03
2023-02-04T14:23:29.726Z,56.09
2023-02-04T14:25:56.105Z,55.58
2023-02-04T14:28:22.487Z,54.08
2023-02-04T14:30:48.904Z,53.61
2023-02-04T14:33:18.023Z,56.05
2023-02-04T14:35:44.427Z,55.58
2023-02-04T14:38:11.380Z,57.21
2023-02-04T14:40:37.726Z,59.05
2023-02-04T14:43:04.096Z,59.92
2023-02-04T14:45:30.456Z,59.43
2023-02-04T14:47:59.326Z,58.93
2023-02-04T14:50:27.115Z,59.24
2023-02-04T14:52:56.845Z,59.66
2023-02-04T14:55:24.333Z,59.28
2023-02-04T14:57:50.932Z,59.24
2023-02-04T15:00:17.835Z,59.89
2023-02-04T15:02:44.262Z,59.79
2023-02-04T15:05:10.979Z,60.45
2023-02-04T15:07:37.354Z,60.62
2023-02-04T15:10:04.731Z,59.29
2023-02-04T15:12:31.147Z,59.81
2023-02-04T15:14:57.545Z,59.89
2023-02-04T15:17:23.986Z,60.79
2023-02-04T15:19:50.338Z,61.35
2023-02-04T15:22:16.804Z,61.55
2023-02-04T15:24:43.196Z,61.89
2023-02-04T15:27:09.596Z,62.12
2023-02-04T15:29:35.984Z,61.44
2023-02-04T15:32:02.456Z,61.20
2023-02-04T15:34:28.917Z,62.58
2023-02-04T15:36:55.301Z,61.61
2023-02-04T15:39:21.689Z,61.94
2023-02-04T15:41:48.088Z,62.63
2023-02-04T15:44:14.529Z,62.52
2023-02-04T15:46:40.884Z,63.03
2023-02-04T15:49:07.429Z,63.58
2023-02-04T15:51:34.099Z,64.15
2023-02-04T15:54:00.458Z,63.91
2023-02-04T15:56:26.827Z,63.97
2023-02-04T15:58:53.351Z,64.00
2023-02-04T16:01:19.891Z,63.06
2023-02-04T16:03:47.108Z,63.98
2023-02-04T16:06:13.452Z,63.96
2023-02-04T16:08:39.988Z,63.92
2023-02-04T16:11:06.345Z,65.14
2023-02-04T16:13:32.806Z,64.05
2023-02-04T16:15:59.300Z,63.89
2023-02-04T16:18:25.795Z,64.31
2023-02-04T16:20:52.260Z,64.47
2023-02-04T16:23:18.646Z,64.16
2023-02-04T16:25:45.024Z,64.23
2023-02-04T16:28:11.473Z,64.07
2023-02-04T16:30:39.184Z,64.49
2023-02-04T16:33:06.772Z,63.85
2023-02-04T16:35:59.874Z,63.48
2023-02-04T16:38:26.726Z,64.37
2023-02-04T16:40:53.054Z,64.54
2023-02-04T16:43:19.675Z,64.50
2023-02-04T16:45:46.130Z,64.40
2023-02-04T16:48:12.507Z,64.84
2023-02-04T16:50:38.841Z,64.77
2023-02-04T16:53:05.348Z,64.75
2023-02-04T16:55:32.982Z,64.86
2023-02-04T16:57:59.441Z,64.19
2023-02-04T17:00:25.823Z,64.89
2023-02-04T17:02:52.278Z,65.40
2023-02-04T17:05:18.682Z,64.80
2023-02-04T17:07:45.056Z,64.88
2023-02-04T17:10:11.542Z,64.52
2023-02-04T17:12:37.942Z,65.63
2023-02-04T17:15:04.461Z,65.56
2023-02-04T17:17:30.829Z,66.32
2023-02-04T17:19:57.361Z,66.36
2023-02-04T17:22:23.777Z,66.55
2023-02-04T17:24:50.117Z,66.21
2023-02-04T17:27:16.503Z,66.97
2023-02-04T17:29:42.878Z,67.23
2023-02-04T17:32:12.290Z,66.88
2023-02-04T17:34:38.647Z,66.62
2023-02-04T17:37:05.020Z,66.35
2023-02-04T17:39:31.572Z,66.03
2023-02-04T17:41:57.920Z,65.11
2023-02-04T17:44:26.721Z,64.26
2023-02-04T17:46:54.076Z,63.33
2023-02-04T17:49:20.460Z,63.61
2023-02-04T17:51:46.846Z,63.99
2023-02-04T17:54:14.081Z,64.20
2023-02-04T17:56:40.470Z,63.43
2023-02-04T17:59:10.017Z,63.21
2023-02-04T18:01:36.755Z,63.78
2023-02-04T18:04:04.920Z,63.26
2023-02-04T18:06:31.574Z,63.48
2023-02-04T18:09:01.920Z,64.04
2023-02-04T18:11:33.006Z,63.87
2023-02-04T18:14:12.313Z,63.74
2023-02-04T18:16:39.823Z,63.95
2023-02-04T18:19:21.290Z,64.24
2023-02-04T18:21:48.910Z,64.16
2023-02-04T18:24:26.996Z,64.34
2023-02-04T18:26:54.880Z,63.95
2023-02-04T18:29:27.411Z,64.00
2023-02-04T18:31:56.677Z,63.51
2023-02-04T18:34:44.157Z,63.09
2023-02-04T18:37:29.994Z,63.78
2023-02-04T18:39:57.624Z,64.22
2023-02-04T18:42:27.381Z,64.55
2023-02-04T18:44:54.962Z,63.31
2023-02-04T18:47:30.964Z,63.30
2023-02-04T18:50:02.080Z,63.22
2023-02-04T18:52:36.345Z,63.47
2023-02-04T18:55:03.321Z,64.34
2023-02-04T18:57:37.845Z,65.33
2023-02-04T19:00:10.343Z,67.25
2023-02-04T19:02:39.384Z,67.57
2023-02-04T19:05:37.324Z,68.06
2023-02-04T19:08:06.584Z,69.15
2023-02-04T19:10:37.471Z,68.05
2023-02-04T19:13:31.901Z,68.75
2023-02-04T19:16:12.036Z,69.29
2023-02-04T19:18:42.440Z,69.53
2023-02-04T19:21:19.843Z,68.95
2023-02-04T19:23:46.316Z,68.85
2023-02-04T19:26:27.989Z,69.00
2023-02-04T19:28:55.546Z,69.40
2023-02-04T19:31:22.413Z,68.97
2023-02-04T19:33:50.457Z,69.33
2023-02-04T19:36:33.920Z,69.36
2023-02-04T19:39:05.548Z,69.82
2023-02-04T19:41:42.884Z,69.07
2023-02-04T19:44:12.548Z,68.51
2023-02-04T19:46:40.052Z,68.59
2023-02-04T19:49:22.735Z,68.36
2023-02-04T19:51:56.522Z,68.73
2023-02-04T19:54:25.109Z,69.74
2023-02-04T19:56:54.194Z,69.23
2023-02-04T19:59:35.567Z,68.80
2023-02-04T20:02:08.188Z,68.51
2023-02-04T20:04:42.218Z,69.07
2023-02-04T20:07:22.581Z,69.27
2023-02-04T20:09:53.354Z,69.67
2023-02-04T20:12:19.919Z,69.73
2023-02-04T20:14:53.261Z,70.35
2023-02-04T20:17:21.235Z,69.98
2023-02-04T20:19:47.697Z,69.67
2023-02-04T20:22:17.001Z,69.90
2023-02-04T20:24:48.851Z,70.00
2023-02-04T20:27:27.561Z,70.83
2023-02-04T20:30:07.476Z,70.69
2023-02-04T20:32:38.009Z,70.69
2023-02-04T20:35:07.408Z,69.78
2023-02-04T20:37:34.282Z,69.81
2023-02-04T20:40:01.155Z,70.13
2023-02-04T20:42:35.435Z,69.53
2023-02-04T20:45:11.867Z,69.49
2023-02-04T20:47:38.269Z,69.23
2023-02-04T20:50:33.365Z,69.16
2023-02-04T20:53:05.344Z,68.50
2023-02-04T20:55:33.700Z,70.05
2023-02-04T20:58:16.186Z,69.19
2023-02-04T21:00:43.571Z,69.63
2023-02-04T21:03:12.847Z,69.49
2023-02-04T21:05:39.928Z,69.41
2023-02-04T21:08:27.762Z,69.05
2023-02-04T21:10:54.288Z,68.98
2023-02-04T21:13:20.721Z,68.84
2023-02-04T21:15:47.102Z,68.35
2023-02-04T21:18:13.501Z,68.16
2023-02-04T21:20:39.927Z,68.31
2023-02-04T21:23:06.338Z,68.71
2023-02-04T21:25:32.940Z,69.18
2023-02-04T21:27:59.533Z,68.87
2023-02-04T21:30:29.930Z,68.36
2023-02-04T21:32:57.524Z,68.74
2023-02-04T21:35:24.571Z,68.75
2023-02-04T21:37:51.805Z,69.27
2023-02-04T21:40:21.772Z,68.52
2023-02-04T21:42:49.131Z,68.58
2023-02-04T21:45:19.603Z,69.08
2023-02-04T21:47:46.959Z,68.75
2023-02-04T21:50:14.676Z,69.14
2023-02-04T21:52:41.970Z,68.87
2023-02-04T21:55:09.747Z,68.82
2023-02-04T21:57:36.417Z,69.63
2023-02-04T22:00:03.781Z,69.33
2023-02-04T22:02:30.325Z,69.97
2023-02-04T22:04:56.655Z,70.06
2023-02-04T22:07:23.093Z,69.56
2023-02-04T22:09:50.025Z,69.97
2023-02-04T22:12:17.545Z,70.08
2023-02-04T22:15:04.295Z,70.31
2023-02-04T22:17:30.885Z,70.08
2023-02-04T22:19:57.315Z,70.55
2023-02-04T22:22:23.726Z,70.49
2023-02-04T22:24:50.088Z,70.37
2023-02-04T22:27:16.521Z,70.92
2023-02-04T22:29:42.887Z,70.77
2023-02-04T22:32:09.303Z,71.27
2023-02-04T22:34:35.630Z,71.30
2023-02-04T22:37:02.090Z,71.76
2023-02-04T22:39:28.512Z,71.65
2023-02-04T22:41:54.913Z,72.22
2023-02-04T22:44:21.281Z,72.34
2023-02-04T22:46:47.815Z,72.46
2023-02-04T22:49:14.286Z,72.22
2023-02-04T22:51:40.705Z,72.73
2023-02-04T22:54:07.080Z,73.06
2023-02-04T22:56:34.813Z,72.44
2023-02-04T22:59:01.222Z,72.96
2023-02-04T23:01:27.549Z,73.46
2023-02-04T23:03:53.963Z,73.27
2023-02-04T23:06:22.390Z,72.69
2023-02-04T23:08:49.169Z,72.95
2023-02-04T23:11:18.303Z,72.93
2023-02-04T23:13:45.663Z,73.09
2023-02-04T23:16:12.078Z,73.24
2023-02-04T23:18:38.501Z,72.92
2023-02-04T23:21:05.388Z,72.81
2023-02-04T23:23:31.832Z,72.87
2023-02-04T23:26:00.291Z,73.19
2023-02-04T23:28:26.768Z,73.29
2023-02-04T23:30:53.164Z,73.89
2023-02-04T23:33:19.555Z,73.73
2023-02-04T23:35:45.885Z,73.39
2023-02-04T23:38:12.280Z,73.28
2023-02-04T23:40:38.724Z,73.99
2023-02-04T23:43:05.729Z,73.98
2023-02-04T23:45:32.501Z,73.67
2023-02-04T23:47:59.276Z,73.62
2023-02-04T23:50:25.677Z,74.01
2023-02-04T23:52:52.093Z,73.91
2023-02-04T23:55:18.694Z,74.42
2023-02-04T23:57:49.415Z,73.74
